createdAt,value
2017-04-18T00:00:01.089Z,0.47
2017-04-18T00:01:01.023Z,0.40
2017-04-18T00:02:01.001Z,0.30
2017-04-18T00:03:01.006Z,0.45
2017-04-18T00:04:00.981Z,0.60
2017-04-18T00:05:01.713Z,0.35
2017-04-18T00:06:01.676Z,0.40
2017-04-18T00:07:01.720Z,0.40
2017-04-18T00:08:01.676Z,0.30
2017-04-18T00:09:01.669Z,0.40
2017-04-18T00:10:01.608Z,0.42
2017-04-18T00:11:01.572Z,0.50
2017-04-18T00:12:01.584Z,0.52
2017-04-18T00:13:01.589Z,0.40
2017-04-18T00:14:01.572Z,0.43
2017-04-18T00:15:01.676Z,0.48
2017-04-18T00:16:02.370Z,0.50
2017-04-18T00:17:02.385Z,0.42
2017-04-18T00:18:02.512Z,0.50
2017-04-18T00:19:09.130Z,0.40
2017-04-18T00:20:09.888Z,0.33
2017-04-18T00:21:10.609Z,0.47
2017-04-18T00:22:10.623Z,0.43
2017-04-18T00:23:11.377Z,0.53
2017-04-18T00:24:11.308Z,0.53
2017-04-18T00:25:11.358Z,0.33
2017-04-18T00:26:11.312Z,0.33
2017-04-18T00:27:11.273Z,0.68
2017-04-18T00:28:11.986Z,0.38
2017-04-18T00:29:11.953Z,0.50
2017-04-18T00:30:11.933Z,0.40
2017-04-18T00:31:11.876Z,0.52
2017-04-18T00:32:11.804Z,0.33
2017-04-18T00:33:11.767Z,0.43
2017-04-18T00:34:11.683Z,0.48
2017-04-18T00:35:11.625Z,0.47
2017-04-18T00:36:11.583Z,0.40
2017-04-18T00:37:11.540Z,0.55
2017-04-18T00:38:11.701Z,0.60
2017-04-18T00:39:11.621Z,0.32
2017-04-18T00:40:11.566Z,0.40
2017-04-18T00:41:12.209Z,0.73
2017-04-18T00:42:12.146Z,0.63
2017-04-18T00:43:12.237Z,0.42
2017-04-18T00:44:12.149Z,0.47
2017-04-18T00:45:12.079Z,0.63
2017-04-18T00:46:12.001Z,0.60
2017-04-18T00:47:11.912Z,0.62
2017-04-18T00:48:12.635Z,0.47
2017-04-18T00:49:12.561Z,0.47
2017-04-18T00:50:12.513Z,0.68
2017-04-18T00:51:13.297Z,0.45
2017-04-18T00:52:13.253Z,0.62
2017-04-18T00:53:13.202Z,0.48
2017-04-18T00:54:13.889Z,0.65
2017-04-18T00:55:13.793Z,0.73
2017-04-18T00:56:13.781Z,0.47
2017-04-18T00:57:13.745Z,0.50
2017-04-18T00:58:13.666Z,0.50
2017-04-18T00:59:13.617Z,0.57
2017-04-18T01:00:13.625Z,0.72
2017-04-18T01:01:13.649Z,0.68
2017-04-18T01:02:14.365Z,0.50
2017-04-18T01:03:14.360Z,0.65
2017-04-18T01:04:14.287Z,0.50
2017-04-18T01:05:14.397Z,0.30
2017-04-18T01:06:15.379Z,0.43
2017-04-18T01:07:15.316Z,0.58
2017-04-18T01:08:15.253Z,0.60
2017-04-18T01:09:15.272Z,0.63
2017-04-18T01:10:15.201Z,0.58
2017-04-18T01:11:15.204Z,0.80
2017-04-18T01:12:15.136Z,0.48
2017-04-18T01:13:15.077Z,0.43
2017-04-18T01:14:15.014Z,0.40
2017-04-18T01:15:14.919Z,0.83
2017-04-18T01:16:14.869Z,0.52
2017-04-18T01:17:14.848Z,0.50
2017-04-18T01:18:14.829Z,0.70
2017-04-18T01:19:14.770Z,0.83
2017-04-18T01:20:15.544Z,0.67
2017-04-18T01:21:15.573Z,0.50
2017-04-18T01:22:15.565Z,0.43
2017-04-18T01:23:15.524Z,0.50
2017-04-18T01:24:15.455Z,0.60
2017-04-18T01:25:16.137Z,0.60
2017-04-18T01:26:16.112Z,0.63
2017-04-18T01:27:16.029Z,0.63
2017-04-18T01:28:15.965Z,0.87
2017-04-18T01:29:15.914Z,0.67
2017-04-18T01:30:15.862Z,0.55
2017-04-18T01:31:15.801Z,0.50
2017-04-18T01:32:15.768Z,0.50
2017-04-18T01:33:15.877Z,0.50
2017-04-18T01:34:15.829Z,0.62
2017-04-18T01:35:15.800Z,0.40
2017-04-18T01:36:15.781Z,0.50
2017-04-18T01:37:15.762Z,0.75
2017-04-18T01:38:15.712Z,0.68
2017-04-18T01:39:15.625Z,0.50
2017-04-18T01:40:20.928Z,0.30
2017-04-18T01:41:26.080Z,0.80
2017-04-18T01:42:31.202Z,0.50
2017-04-18T01:43:37.351Z,0.62
2017-04-18T01:44:42.648Z,0.60
2017-04-18T01:45:47.816Z,0.60
2017-04-18T01:46:47.756Z,0.60
2017-04-18T01:47:48.488Z,0.82
2017-04-18T01:48:48.461Z,0.55
2017-04-18T01:49:48.372Z,0.52
2017-04-18T01:50:48.325Z,0.50
2017-04-18T01:51:48.274Z,0.60
2017-04-18T01:52:48.165Z,0.77
2017-04-18T01:53:48.354Z,0.68
2017-04-18T01:54:48.348Z,0.77
2017-04-18T01:55:48.292Z,0.90
2017-04-18T01:56:48.248Z,0.60
2017-04-18T01:57:48.177Z,0.53
2017-04-18T01:58:48.166Z,0.72
2017-04-18T01:59:48.064Z,0.90
2017-04-18T02:00:48.082Z,0.72
2017-04-18T02:01:48.076Z,0.92
2017-04-18T02:02:48.061Z,0.52
2017-04-18T02:03:48.021Z,0.63
2017-04-18T02:04:47.988Z,0.58
2017-04-18T02:05:48.687Z,0.63
2017-04-18T02:06:48.661Z,0.62
2017-04-18T02:07:48.606Z,0.62
2017-04-18T02:08:48.651Z,0.67
2017-04-18T02:09:48.632Z,0.58
2017-04-18T02:10:49.316Z,0.75
2017-04-18T02:11:49.258Z,0.63
2017-04-18T02:12:49.946Z,0.42
2017-04-18T02:13:49.854Z,0.40
2017-04-18T02:14:49.811Z,0.57
2017-04-18T02:15:49.862Z,0.73
2017-04-18T02:16:49.830Z,0.60
2017-04-18T02:17:49.756Z,0.55
2017-04-18T02:18:49.741Z,0.40
2017-04-18T02:19:49.726Z,0.60
2017-04-18T02:20:50.416Z,0.48
2017-04-18T02:21:50.473Z,0.43
2017-04-18T02:22:50.401Z,0.40
2017-04-18T02:23:50.325Z,0.65
2017-04-18T02:24:50.397Z,0.63
2017-04-18T02:25:50.331Z,0.97
2017-04-18T02:26:50.280Z,0.72
2017-04-18T02:27:50.947Z,0.68
2017-04-18T02:28:50.939Z,0.67
2017-04-18T02:29:50.958Z,0.65
2017-04-18T02:30:51.013Z,1.65
2017-04-18T02:31:50.928Z,0.47
2017-04-18T02:32:51.568Z,0.70
2017-04-18T02:33:51.534Z,0.40
2017-04-18T02:34:51.469Z,0.53
2017-04-18T02:35:52.184Z,0.50
2017-04-18T02:36:52.827Z,0.57
2017-04-18T02:37:52.772Z,0.78
2017-04-18T02:38:53.472Z,0.60
2017-04-18T02:39:53.473Z,0.72
2017-04-18T02:40:53.441Z,0.68
2017-04-18T02:41:54.188Z,1.68
2017-04-18T02:42:54.193Z,1.03
2017-04-18T02:43:54.149Z,1.22
2017-04-18T02:44:54.069Z,1.13
2017-04-18T02:45:54.041Z,1.37
2017-04-18T02:46:53.963Z,1.62
2017-04-18T02:47:53.953Z,1.03
2017-04-18T02:48:53.850Z,1.10
2017-04-18T02:49:53.840Z,0.85
2017-04-18T02:50:53.783Z,0.92
2017-04-18T02:51:53.692Z,0.77
2017-04-18T02:52:53.632Z,0.70
2017-04-18T02:53:54.325Z,0.77
2017-04-18T02:54:54.295Z,0.53
2017-04-18T02:55:54.286Z,0.77
2017-04-18T02:56:53.450Z,0.73
2017-04-18T02:57:54.146Z,0.78
2017-04-18T02:58:54.104Z,0.70
2017-04-18T02:59:54.024Z,0.57
2017-04-18T03:00:54.012Z,0.50
2017-04-18T03:01:53.955Z,0.73
2017-04-18T03:02:54.056Z,0.70
2017-04-18T03:03:53.982Z,0.90
2017-04-18T03:04:54.000Z,0.82
2017-04-18T03:05:53.933Z,0.60
2017-04-18T03:06:53.852Z,0.77
2017-04-18T03:07:53.778Z,0.95
2017-04-18T03:08:53.864Z,0.68
2017-04-18T03:09:53.837Z,0.80
2017-04-18T03:10:53.871Z,0.83
2017-04-18T03:11:53.837Z,0.65
2017-04-18T03:12:53.795Z,0.92
2017-04-18T03:13:53.761Z,0.85
2017-04-18T03:14:53.826Z,0.85
2017-04-18T03:15:53.790Z,0.80
2017-04-18T03:16:54.454Z,0.63
2017-04-18T03:17:54.414Z,0.87
2017-04-18T03:18:54.336Z,0.88
2017-04-18T03:19:54.300Z,0.68
2017-04-18T03:20:54.212Z,0.62
2017-04-18T03:21:54.124Z,0.60
2017-04-18T03:22:54.089Z,0.62
2017-04-18T03:23:54.054Z,0.70
2017-04-18T03:24:54.776Z,0.50
2017-04-18T03:25:55.443Z,0.60
2017-04-18T03:26:55.380Z,0.57
2017-04-18T03:27:55.328Z,0.73
2017-04-18T03:28:55.262Z,0.63
2017-04-18T03:29:55.213Z,0.78
2017-04-18T03:30:55.904Z,1.02
2017-04-18T03:31:55.821Z,0.70
2017-04-18T03:32:55.837Z,0.58
2017-04-18T03:33:55.778Z,0.92
2017-04-18T03:34:55.730Z,0.70
2017-04-18T03:35:55.734Z,0.70
2017-04-18T03:36:55.757Z,0.60
2017-04-18T03:37:55.685Z,0.72
2017-04-18T03:38:55.652Z,0.90
2017-04-18T03:39:55.642Z,0.72
2017-04-18T03:40:55.586Z,0.57
2017-04-18T03:41:55.566Z,0.67
2017-04-18T03:42:55.504Z,0.78
2017-04-18T03:43:56.307Z,0.72
2017-04-18T03:44:56.234Z,0.75
2017-04-18T03:45:56.233Z,0.90
2017-04-18T03:46:56.153Z,0.70
2017-04-18T03:47:56.822Z,0.77
2017-04-18T03:48:56.752Z,0.63
2017-04-18T03:49:56.733Z,0.78
2017-04-18T03:50:56.808Z,0.70
2017-04-18T03:51:56.741Z,0.67
2017-04-18T03:52:56.693Z,0.73
2017-04-18T03:53:56.606Z,0.73
2017-04-18T03:54:57.270Z,0.60
2017-04-18T03:55:57.273Z,0.90
2017-04-18T03:56:57.187Z,0.68
2017-04-18T03:57:57.139Z,0.78
2017-04-18T03:58:57.048Z,0.50
2017-04-18T03:59:57.776Z,0.70
2017-04-18T04:00:57.692Z,0.55
2017-04-18T04:01:57.627Z,0.70
2017-04-18T04:02:57.600Z,0.87
2017-04-18T04:03:57.513Z,0.85
2017-04-18T04:04:57.432Z,0.85
2017-04-18T04:05:57.392Z,0.77
2017-04-18T04:06:57.485Z,0.70
2017-04-18T04:07:57.435Z,0.73
2017-04-18T04:08:58.121Z,0.57
2017-04-18T04:09:58.103Z,0.78
2017-04-18T04:10:58.030Z,0.85
2017-04-18T04:11:57.969Z,0.60
2017-04-18T04:12:57.919Z,0.83
2017-04-18T04:13:57.834Z,0.70
2017-04-18T04:14:57.931Z,0.60
2017-04-18T04:15:57.895Z,0.95
2017-04-18T04:16:58.669Z,0.70
2017-04-18T04:17:58.620Z,0.88
2017-04-18T04:18:59.291Z,0.93
2017-04-18T04:19:59.278Z,0.75
2017-04-18T04:20:59.377Z,0.90
2017-04-18T04:21:59.329Z,0.62
2017-04-18T04:22:59.261Z,0.90
2017-04-18T04:23:59.948Z,0.63
2017-04-18T04:24:59.864Z,0.88
2017-04-18T04:25:59.822Z,0.70
2017-04-18T04:26:59.776Z,0.67
2017-04-18T04:27:59.753Z,0.72
2017-04-18T04:28:59.712Z,0.57
2017-04-18T04:30:00.396Z,1.20
2017-04-18T04:31:00.417Z,0.87
2017-04-18T04:32:00.381Z,0.68
2017-04-18T04:33:00.323Z,1.12
2017-04-18T04:34:00.256Z,0.87
2017-04-18T04:35:00.944Z,1.02
2017-04-18T04:36:00.877Z,1.02
2017-04-18T04:37:00.865Z,1.05
2017-04-18T04:38:00.825Z,0.92
2017-04-18T04:39:00.770Z,1.17
2017-04-18T04:40:00.744Z,1.15
2017-04-18T04:41:00.732Z,1.15
2017-04-18T04:42:00.655Z,1.35
2017-04-18T04:43:00.610Z,0.97
2017-04-18T04:44:00.605Z,1.10
2017-04-18T04:45:00.581Z,0.77
2017-04-18T04:46:00.557Z,0.85
2017-04-18T04:47:00.561Z,1.93
2017-04-18T04:48:00.559Z,1.10
2017-04-18T04:49:01.241Z,1.15
2017-04-18T04:50:01.222Z,1.28
2017-04-18T04:51:01.185Z,1.62
2017-04-18T04:52:01.132Z,1.38
2017-04-18T04:53:01.096Z,1.67
2017-04-18T04:54:01.105Z,1.72
2017-04-18T04:55:01.080Z,2.07
2017-04-18T04:56:01.010Z,1.72
2017-04-18T04:57:00.998Z,1.68
2017-04-18T04:58:01.193Z,1.27
2017-04-18T04:59:01.160Z,1.55
2017-04-18T05:00:01.198Z,1.83
2017-04-18T05:01:01.153Z,1.33
2017-04-18T05:02:01.161Z,1.75
2017-04-18T05:03:01.277Z,1.55
2017-04-18T05:04:01.198Z,1.52
2017-04-18T05:05:01.205Z,2.95
2017-04-18T05:06:01.137Z,2.25
2017-04-18T05:07:01.093Z,1.73
2017-04-18T05:08:01.049Z,1.97
2017-04-18T05:09:01.021Z,1.57
2017-04-18T05:10:01.041Z,2.65
2017-04-18T05:11:01.050Z,2.07
2017-04-18T05:12:01.070Z,1.82
2017-04-18T05:13:01.061Z,1.68
2017-04-18T05:14:01.037Z,1.82
2017-04-18T05:15:01.040Z,2.03
2017-04-18T05:16:01.013Z,2.37
2017-04-18T05:17:01.190Z,2.07
2017-04-18T05:18:01.720Z,2.18
2017-04-18T05:19:02.654Z,1.93
2017-04-18T05:20:02.630Z,1.75
2017-04-18T05:21:02.614Z,1.75
2017-04-18T05:22:02.625Z,1.38
2017-04-18T05:23:02.562Z,2.02
2017-04-18T05:24:02.507Z,1.23
2017-04-18T05:25:02.421Z,1.67
2017-04-18T05:26:02.401Z,1.37
2017-04-18T05:27:02.341Z,1.63
2017-04-18T05:28:02.323Z,1.55
2017-04-18T05:29:02.278Z,1.70
2017-04-18T05:30:02.232Z,1.68
2017-04-18T05:31:02.185Z,2.28
2017-04-18T05:32:02.158Z,2.05
2017-04-18T05:33:02.097Z,2.08
2017-04-18T05:34:02.005Z,1.75
2017-04-18T05:35:02.070Z,2.35
2017-04-18T05:36:02.020Z,2.42
2017-04-18T05:37:01.983Z,3.43
2017-04-18T05:38:01.949Z,3.87
2017-04-18T05:39:01.903Z,4.02
2017-04-18T05:40:01.841Z,3.27
2017-04-18T05:41:01.788Z,3.52
2017-04-18T05:42:01.736Z,2.90
2017-04-18T05:43:01.690Z,3.18
2017-04-18T05:44:02.412Z,2.93
2017-04-18T05:45:02.378Z,2.45
2017-04-18T05:46:02.322Z,2.23
2017-04-18T05:47:03.007Z,2.57
2017-04-18T05:48:03.014Z,2.45
2017-04-18T05:49:02.924Z,2.42
2017-04-18T05:50:02.911Z,2.03
2017-04-18T05:51:02.838Z,1.62
2017-04-18T05:52:02.763Z,1.55
2017-04-18T05:53:02.738Z,1.58
2017-04-18T05:54:02.676Z,1.22
2017-04-18T05:55:03.040Z,1.48
2017-04-18T05:56:03.355Z,1.47
2017-04-18T05:57:03.520Z,1.03
2017-04-18T05:58:04.332Z,1.30
2017-04-18T05:59:04.676Z,1.20
2017-04-18T06:00:04.897Z,1.73
2017-04-18T06:01:05.006Z,1.28
2017-04-18T06:02:05.146Z,1.12
2017-04-18T06:03:05.222Z,1.18
2017-04-18T06:04:05.452Z,1.37
2017-04-18T06:05:05.461Z,0.95
2017-04-18T06:06:06.153Z,1.28
2017-04-18T06:07:06.098Z,0.65
2017-04-18T06:08:06.040Z,0.78
2017-04-18T06:09:06.387Z,0.90
2017-04-18T06:10:06.344Z,1.10
2017-04-18T06:11:06.284Z,0.88
2017-04-18T06:12:06.248Z,1.00
2017-04-18T06:13:06.178Z,1.65
2017-04-18T06:14:06.158Z,0.90
2017-04-18T06:15:06.113Z,0.90
2017-04-18T06:16:06.076Z,0.97
2017-04-18T06:17:06.021Z,1.07
2017-04-18T06:18:06.002Z,0.95
2017-04-18T06:19:05.932Z,1.10
2017-04-18T06:20:05.973Z,1.02
2017-04-18T06:21:05.957Z,1.50
2017-04-18T06:22:05.920Z,1.28
2017-04-18T06:23:05.855Z,0.85
2017-04-18T06:24:05.808Z,1.07
2017-04-18T06:25:05.756Z,1.20
2017-04-18T06:26:05.756Z,1.43
2017-04-18T06:27:05.709Z,1.02
2017-04-18T06:28:05.660Z,1.13
2017-04-18T06:29:05.594Z,1.02
2017-04-18T06:30:05.581Z,0.95
2017-04-18T06:31:06.417Z,0.95
2017-04-18T06:32:06.362Z,1.02
2017-04-18T06:33:06.356Z,0.92
2017-04-18T06:34:06.332Z,0.80
2017-04-18T06:35:07.013Z,1.37
2017-04-18T06:36:06.976Z,1.05
2017-04-18T06:37:06.955Z,1.03
2017-04-18T06:38:08.600Z,1.02
2017-04-18T06:39:08.564Z,0.70
2017-04-18T06:40:08.505Z,0.88
2017-04-18T06:41:08.469Z,0.90
2017-04-18T06:42:08.387Z,0.90
2017-04-18T06:43:08.334Z,0.95
2017-04-18T06:44:08.288Z,0.72
2017-04-18T06:45:08.265Z,0.93
2017-04-18T06:46:08.436Z,1.08
2017-04-18T06:47:08.474Z,1.12
2017-04-18T06:48:08.372Z,1.08
2017-04-18T06:49:09.063Z,1.00
2017-04-18T06:50:09.057Z,1.02
2017-04-18T06:51:09.770Z,1.88
2017-04-18T06:52:10.557Z,0.80
2017-04-18T06:53:10.501Z,0.85
2017-04-18T06:54:10.478Z,0.80
2017-04-18T06:55:10.503Z,0.93
2017-04-18T06:56:10.416Z,0.75
2017-04-18T06:57:10.426Z,1.02
2017-04-18T06:58:10.400Z,3.87
2017-04-18T06:59:10.342Z,1.08
2017-04-18T07:00:10.281Z,1.18
2017-04-18T07:01:11.032Z,0.70
2017-04-18T07:02:11.072Z,3.43
2017-04-18T07:03:14.664Z,1.62
2017-04-18T07:04:14.726Z,8.82
2017-04-18T07:05:14.679Z,1.78
2017-04-18T07:06:14.665Z,1.60
2017-04-18T07:07:14.659Z,1.27
2017-04-18T07:08:14.669Z,1.00
2017-04-18T07:09:14.650Z,1.55
2017-04-18T07:10:15.322Z,1.50
2017-04-18T07:11:15.307Z,0.80
2017-04-18T07:12:15.279Z,2.60
2017-04-18T07:13:15.226Z,1.33
2017-04-18T07:14:15.187Z,0.87
2017-04-18T07:15:15.145Z,0.77
2017-04-18T07:16:15.154Z,0.80
2017-04-18T07:17:15.140Z,1.10
2017-04-18T07:18:15.096Z,0.87
2017-04-18T07:19:15.060Z,1.20
2017-04-18T07:20:14.953Z,0.95
2017-04-18T07:21:14.900Z,0.80
2017-04-18T07:22:14.890Z,0.83
2017-04-18T07:23:14.901Z,0.90
2017-04-18T07:24:14.864Z,1.07
2017-04-18T07:25:15.560Z,0.90
2017-04-18T07:26:15.504Z,0.73
2017-04-18T07:27:15.457Z,0.98
2017-04-18T07:28:15.442Z,1.50
2017-04-18T07:29:15.411Z,9.35
2017-04-18T07:30:15.333Z,3.90
2017-04-18T07:31:15.263Z,1.18
2017-04-18T07:32:15.214Z,1.33
2017-04-18T07:33:16.033Z,1.05
2017-04-18T07:34:15.956Z,1.12
2017-04-18T07:35:15.906Z,0.82
2017-04-18T07:36:15.878Z,0.98
2017-04-18T07:37:15.845Z,0.82
2017-04-18T07:38:15.792Z,1.10
2017-04-18T07:39:15.769Z,1.08
2017-04-18T07:40:15.749Z,0.90
2017-04-18T07:41:15.672Z,0.82
2017-04-18T07:42:15.599Z,1.08
2017-04-18T07:43:15.555Z,0.82
2017-04-18T07:44:15.558Z,1.02
2017-04-18T07:45:15.512Z,1.00
2017-04-18T07:46:16.196Z,0.97
2017-04-18T07:47:16.125Z,0.97
2017-04-18T07:48:16.803Z,0.70
2017-04-18T07:49:16.759Z,0.88
2017-04-18T07:50:16.717Z,0.90
2017-04-18T07:51:16.640Z,1.33
2017-04-18T07:52:16.532Z,1.10
2017-04-18T07:53:16.489Z,0.98
2017-04-18T07:54:17.194Z,0.78
2017-04-18T07:55:17.157Z,0.85
2017-04-18T07:56:17.111Z,0.97
2017-04-18T07:57:17.030Z,1.08
2017-04-18T07:58:17.034Z,0.93
2017-04-18T07:59:17.716Z,0.90
2017-04-18T08:00:17.684Z,1.12
2017-04-18T08:01:17.652Z,1.37
2017-04-18T08:02:17.649Z,1.42
2017-04-18T08:03:17.697Z,0.93
2017-04-18T08:04:17.657Z,1.35
2017-04-18T08:05:17.635Z,1.97
2017-04-18T08:06:17.617Z,1.42
2017-04-18T08:07:17.543Z,1.02
2017-04-18T08:08:17.624Z,1.45
2017-04-18T08:09:17.600Z,1.02
2017-04-18T08:10:17.549Z,1.20
2017-04-18T08:11:17.492Z,0.97
2017-04-18T08:12:17.430Z,0.82
2017-04-18T08:13:17.396Z,1.55
2017-04-18T08:14:17.461Z,1.22
2017-04-18T08:15:17.399Z,0.90
2017-04-18T08:16:17.369Z,1.05
2017-04-18T08:17:17.330Z,1.23
2017-04-18T08:18:17.249Z,1.03
2017-04-18T08:19:17.213Z,1.07
2017-04-18T08:20:17.151Z,1.00
2017-04-18T08:21:17.070Z,1.17
2017-04-18T08:22:16.997Z,0.90
2017-04-18T08:23:16.930Z,0.82
2017-04-18T08:24:16.890Z,1.03
2017-04-18T08:25:16.946Z,1.27
2017-04-18T08:26:16.949Z,1.33
2017-04-18T08:27:16.907Z,0.82
2017-04-18T08:28:16.824Z,0.93
2017-04-18T08:29:17.513Z,1.02
2017-04-18T08:30:17.492Z,1.10
2017-04-18T08:31:17.420Z,1.08
2017-04-18T08:32:17.348Z,1.02
2017-04-18T08:33:17.290Z,0.98
2017-04-18T08:34:17.226Z,1.18
2017-04-18T08:35:17.197Z,1.53
2017-04-18T08:36:17.341Z,1.20
2017-04-18T08:37:17.294Z,0.80
2017-04-18T08:38:18.024Z,1.00
2017-04-18T08:39:17.990Z,1.22
2017-04-18T08:40:17.926Z,1.27
2017-04-18T08:41:17.901Z,1.13
2017-04-18T08:42:17.859Z,0.93
2017-04-18T08:43:17.788Z,0.82
2017-04-18T08:44:17.714Z,0.93
2017-04-18T08:45:17.702Z,1.47
2017-04-18T08:46:17.681Z,1.12
2017-04-18T08:47:17.629Z,1.08
2017-04-18T08:48:17.646Z,0.83
2017-04-18T08:49:17.608Z,0.92
2017-04-18T08:50:17.557Z,0.80
2017-04-18T08:51:17.570Z,0.78
2017-04-18T08:52:17.548Z,1.10
2017-04-18T08:53:17.504Z,1.07
2017-04-18T08:54:18.204Z,0.75
2017-04-18T08:55:18.160Z,0.98
2017-04-18T08:56:18.154Z,0.97
2017-04-18T08:57:18.123Z,1.37
2017-04-18T08:58:18.078Z,0.90
2017-04-18T08:59:18.057Z,0.87
2017-04-18T09:00:18.018Z,1.30
2017-04-18T09:01:18.225Z,0.53
2017-04-18T09:02:18.211Z,0.98
2017-04-18T09:03:18.149Z,1.00
2017-04-18T09:04:18.127Z,1.20
2017-04-18T09:05:18.100Z,0.92
2017-04-18T09:06:18.821Z,0.85
2017-04-18T09:07:19.496Z,1.15
2017-04-18T09:08:19.468Z,1.23
2017-04-18T09:09:19.452Z,1.22
2017-04-18T09:10:19.429Z,1.08
2017-04-18T09:11:19.549Z,1.13
2017-04-18T09:12:19.476Z,1.28
2017-04-18T09:13:20.203Z,1.33
2017-04-18T09:14:20.124Z,1.10
2017-04-18T09:15:20.078Z,1.02
2017-04-18T09:16:20.033Z,0.90
2017-04-18T09:17:19.988Z,0.90
2017-04-18T09:18:19.979Z,0.87
2017-04-18T09:19:19.944Z,0.85
2017-04-18T09:20:20.687Z,1.08
2017-04-18T09:21:20.674Z,1.10
2017-04-18T09:22:21.418Z,1.00
2017-04-18T09:23:21.361Z,1.07
2017-04-18T09:24:21.309Z,0.95
2017-04-18T09:25:22.017Z,1.07
2017-04-18T09:26:22.078Z,1.08
2017-04-18T09:27:22.027Z,1.00
2017-04-18T09:28:21.968Z,0.80
2017-04-18T09:29:21.902Z,0.87
2017-04-18T09:30:22.034Z,1.37
2017-04-18T09:31:22.024Z,0.82
2017-04-18T09:32:22.765Z,1.20
2017-04-18T09:33:22.761Z,1.12
2017-04-18T09:34:23.441Z,0.80
2017-04-18T09:35:23.388Z,1.13
2017-04-18T09:36:23.586Z,0.93
2017-04-18T09:37:23.521Z,1.32
2017-04-18T09:38:23.485Z,0.92
2017-04-18T09:39:23.434Z,0.83
2017-04-18T09:40:23.421Z,0.95
2017-04-18T09:41:23.401Z,1.02
2017-04-18T09:42:23.345Z,0.97
2017-04-18T09:43:23.265Z,1.03
2017-04-18T09:44:23.217Z,0.90
2017-04-18T09:45:23.147Z,1.05
2017-04-18T09:46:23.140Z,1.17
2017-04-18T09:47:23.101Z,1.18
2017-04-18T09:48:23.817Z,1.03
2017-04-18T09:49:23.748Z,0.87
2017-04-18T09:50:23.677Z,2.10
2017-04-18T09:51:23.664Z,1.40
2017-04-18T09:52:23.616Z,1.15
2017-04-18T09:53:23.581Z,1.52
2017-04-18T09:54:23.547Z,1.03
2017-04-18T09:55:23.516Z,0.98
2017-04-18T09:56:23.478Z,1.40
2017-04-18T09:57:23.421Z,1.15
2017-04-18T09:58:23.633Z,1.10
2017-04-18T09:59:23.602Z,1.12
2017-04-18T10:00:23.574Z,1.15
2017-04-18T10:01:23.626Z,1.17
2017-04-18T10:02:23.568Z,1.18
2017-04-18T10:03:23.624Z,1.42
2017-04-18T10:04:24.311Z,1.00
2017-04-18T10:05:24.301Z,1.17
2017-04-18T10:06:24.248Z,1.28
2017-04-18T10:07:24.964Z,0.92
2017-04-18T10:08:25.813Z,1.42
2017-04-18T10:09:25.760Z,1.43
2017-04-18T10:10:25.693Z,1.20
2017-04-18T10:11:25.624Z,1.27
2017-04-18T10:12:25.562Z,1.23
2017-04-18T10:13:25.784Z,1.25
2017-04-18T10:14:25.749Z,1.20
2017-04-18T10:15:26.456Z,1.23
2017-04-18T10:16:26.466Z,1.10
2017-04-18T10:17:26.404Z,1.10
2017-04-18T10:18:26.376Z,1.70
2017-04-18T10:19:26.285Z,1.22
2017-04-18T10:20:26.964Z,1.55
2017-04-18T10:21:27.678Z,1.68
2017-04-18T10:22:27.633Z,1.18
2017-04-18T10:23:27.597Z,1.23
2017-04-18T10:24:27.566Z,1.55
2017-04-18T10:25:27.539Z,1.37
2017-04-18T10:26:27.487Z,1.15
2017-04-18T10:27:27.441Z,1.32
2017-04-18T10:28:27.374Z,1.77
2017-04-18T10:29:28.103Z,1.43
2017-04-18T10:30:28.133Z,1.42
2017-04-18T10:31:28.208Z,1.03
2017-04-18T10:32:28.154Z,1.25
2017-04-18T10:33:28.126Z,1.40
2017-04-18T10:34:28.115Z,1.42
2017-04-18T10:35:28.074Z,1.22
2017-04-18T10:36:28.065Z,1.35
2017-04-18T10:37:28.009Z,1.58
2017-04-18T10:38:27.942Z,1.13
2017-04-18T10:39:27.944Z,1.60
2017-04-18T10:40:28.233Z,1.57
2017-04-18T10:41:28.201Z,1.37
2017-04-18T10:42:28.152Z,1.38
2017-04-18T10:43:28.098Z,1.32
2017-04-18T10:44:28.777Z,1.60
2017-04-18T10:45:28.803Z,1.27
2017-04-18T10:46:28.792Z,1.45
2017-04-18T10:47:28.700Z,1.55
2017-04-18T10:48:28.701Z,1.55
2017-04-18T10:49:28.690Z,1.48
2017-04-18T10:50:28.621Z,1.37
2017-04-18T10:51:28.550Z,1.40
2017-04-18T10:52:29.253Z,1.43
2017-04-18T10:53:29.225Z,1.72
2017-04-18T10:54:29.196Z,1.43
2017-04-18T10:55:29.879Z,1.13
2017-04-18T10:56:29.820Z,1.82
2017-04-18T10:57:30.595Z,1.40
2017-04-18T10:58:30.540Z,1.35
2017-04-18T10:59:31.241Z,1.68
2017-04-18T11:00:31.198Z,1.18
2017-04-18T11:01:31.152Z,1.47
2017-04-18T11:02:31.323Z,1.77
2017-04-18T11:03:31.297Z,1.13
2017-04-18T11:04:32.338Z,1.33
2017-04-18T11:05:32.288Z,1.25
2017-04-18T11:06:32.222Z,1.20
2017-04-18T11:07:32.297Z,1.52
2017-04-18T11:08:32.253Z,1.45
2017-04-18T11:09:32.218Z,1.33
2017-04-18T11:10:32.135Z,1.42
2017-04-18T11:11:32.071Z,1.12
2017-04-18T11:12:32.055Z,1.38
2017-04-18T11:13:32.047Z,1.42
2017-04-18T11:14:31.988Z,1.70
2017-04-18T11:15:32.694Z,1.22
2017-04-18T11:16:32.664Z,1.48
2017-04-18T11:17:32.620Z,1.32
2017-04-18T11:18:33.341Z,1.28
2017-04-18T11:19:34.354Z,1.43
2017-04-18T11:20:34.305Z,1.30
2017-04-18T11:21:34.284Z,1.28
2017-04-18T11:22:34.989Z,1.10
2017-04-18T11:23:34.962Z,1.27
2017-04-18T11:24:34.918Z,1.50
2017-04-18T11:25:35.642Z,1.57
2017-04-18T11:26:35.573Z,1.08
2017-04-18T11:27:35.648Z,1.57
2017-04-18T11:28:35.605Z,1.68
2017-04-18T11:29:35.586Z,1.83
2017-04-18T11:30:35.579Z,1.70
2017-04-18T11:31:36.237Z,1.88
2017-04-18T11:32:36.322Z,1.67
2017-04-18T11:33:36.316Z,1.63
2017-04-18T11:34:36.994Z,2.60
2017-04-18T11:35:36.985Z,2.50
2017-04-18T11:36:36.920Z,2.67
2017-04-18T11:37:37.344Z,2.40
2017-04-18T11:38:37.266Z,2.27
2017-04-18T11:39:37.176Z,2.33
2017-04-18T11:40:37.165Z,2.62
2017-04-18T11:41:37.131Z,3.07
2017-04-18T11:42:37.059Z,2.50
2017-04-18T11:43:38.072Z,2.93
2017-04-18T11:44:38.031Z,2.53
2017-04-18T11:45:38.748Z,2.52
2017-04-18T11:46:38.701Z,2.97
2017-04-18T11:47:38.650Z,2.42
2017-04-18T11:48:38.614Z,2.15
2017-04-18T11:49:38.572Z,2.38
2017-04-18T11:50:39.274Z,3.47
2017-04-18T11:51:39.248Z,2.27
2017-04-18T11:52:39.290Z,2.35
2017-04-18T11:53:39.260Z,2.40
2017-04-18T11:54:39.220Z,2.50
2017-04-18T11:55:39.185Z,2.68
2017-04-18T11:56:39.162Z,2.35
2017-04-18T11:57:39.138Z,2.08
2017-04-18T11:58:39.978Z,2.80
2017-04-18T11:59:40.693Z,2.50
2017-04-18T12:00:41.437Z,2.82
2017-04-18T12:01:41.396Z,2.03
2017-04-18T12:02:41.337Z,2.20
2017-04-18T12:03:41.466Z,2.48
2017-04-18T12:04:41.403Z,2.33
2017-04-18T12:05:41.378Z,2.62
2017-04-18T12:06:41.342Z,2.15
2017-04-18T12:07:41.301Z,2.15
2017-04-18T12:08:41.236Z,2.98
2017-04-18T12:09:41.419Z,2.80
2017-04-18T12:10:41.319Z,2.68
2017-04-18T12:11:41.281Z,2.75
2017-04-18T12:12:41.938Z,3.27
2017-04-18T12:13:41.865Z,2.82
2017-04-18T12:14:42.592Z,2.70
2017-04-18T12:15:42.594Z,2.37
2017-04-18T12:16:42.576Z,2.47
2017-04-18T12:17:42.537Z,2.22
2017-04-18T12:18:42.520Z,2.10
2017-04-18T12:19:42.445Z,2.18
2017-04-18T12:20:42.589Z,1.78
2017-04-18T12:21:42.566Z,1.98
2017-04-18T12:22:42.532Z,2.57
2017-04-18T12:23:42.454Z,2.55
2017-04-18T12:24:42.416Z,1.92
2017-04-18T12:25:42.364Z,2.17
2017-04-18T12:26:42.319Z,1.93
2017-04-18T12:27:42.263Z,1.77
2017-04-18T12:28:42.425Z,2.47
2017-04-18T12:29:42.308Z,1.72
2017-04-18T12:30:42.395Z,1.48
2017-04-18T12:31:42.388Z,1.68
2017-04-18T12:32:42.364Z,1.13
2017-04-18T12:33:42.304Z,1.62
2017-04-18T12:34:42.249Z,1.85
2017-04-18T12:35:42.173Z,1.70
2017-04-18T12:36:42.330Z,1.10
2017-04-18T12:37:42.822Z,1.40
2017-04-18T12:38:42.763Z,1.35
2017-04-18T12:39:42.702Z,1.27
2017-04-18T12:40:42.797Z,1.17
2017-04-18T12:41:42.790Z,1.28
2017-04-18T12:42:42.740Z,1.53
2017-04-18T12:43:42.694Z,1.30
2017-04-18T12:44:42.619Z,0.90
2017-04-18T12:45:42.878Z,1.10
2017-04-18T12:46:42.933Z,1.58
2017-04-18T12:47:42.956Z,1.17
2017-04-18T12:48:43.121Z,1.15
2017-04-18T12:49:43.337Z,1.28
2017-04-18T12:50:43.419Z,1.17
2017-04-18T12:51:43.383Z,1.38
2017-04-18T12:52:43.356Z,1.37
2017-04-18T12:53:43.319Z,1.83
2017-04-18T12:54:44.002Z,2.55
2017-04-18T12:55:43.965Z,2.12
2017-04-18T12:56:43.938Z,3.60
2017-04-18T12:57:43.888Z,3.23
2017-04-18T12:58:45.077Z,2.72
2017-04-18T12:59:45.021Z,2.72
2017-04-18T13:00:44.966Z,3.00
2017-04-18T13:01:44.972Z,2.40
2017-04-18T13:02:44.930Z,2.97
2017-04-18T13:03:44.880Z,2.43
2017-04-18T13:04:44.829Z,2.58
2017-04-18T13:05:45.535Z,2.93
2017-04-18T13:06:46.277Z,2.85
2017-04-18T13:07:46.231Z,3.25
2017-04-18T13:08:46.196Z,3.88
2017-04-18T13:09:46.867Z,3.30
2017-04-18T13:10:46.831Z,3.50
2017-04-18T13:11:46.888Z,3.53
2017-04-18T13:12:46.861Z,3.27
2017-04-18T13:13:46.789Z,3.08
2017-04-18T13:14:46.735Z,2.85
2017-04-18T13:15:47.499Z,3.00
2017-04-18T13:16:53.985Z,2.98
2017-04-18T13:17:53.927Z,3.05
2017-04-18T13:18:53.856Z,3.28
2017-04-18T13:19:53.777Z,2.82